Latest Weather Observations for Parawa West

IDS60901

Issued at 4:31 pm CDT Sunday 29 March 2015 (issued every 10 minutes, with the page automatically refreshed every 10 minutes)

About weather observations | Map of Adelaide area stations | Latest observations for Adelaide area | Other Formats
Station Details ID: 023875 Name: SECOND VALLEY FOREST AWS Lat: -35.57 Lon: 138.29 Height: 341.0 m
Data from the previous 72 hours. | See also: Recent months at Parawa West
Date/Time
CDT
Tmp

°C
App
Tmp
°C
Dew
Point
°C
Rel
Hum
%
Delta-T

°C
Wind Press
QNH
hPa
Press
MSL
hPa
Rain
since
9 am
mm
Dir
 
Spd
km/h
Gust
km/h
Spd
kts
Gust
kts
29/04:30pm 19.3 17.4 9.2 52 5.4 NW 9 15 5 8 1022.1 1021.3 0.0
29/04:00pm 19.3 17.9 9.5 53 5.3 NW 7 15 4 8 1022.1 1021.3 0.0
29/03:30pm 18.8 16.7 8.2 50 5.5 NNW 9 19 5 10 1022.3 1021.5 0.0
29/03:00pm 19.9 17.3 9.5 51 5.6 NW 13 24 7 13 1022.4 1021.6 0.0
29/02:30pm 19.2 16.9 10.5 57 4.8 NW 13 20 7 11 1022.5 1021.8 0.0
29/02:00pm 19.2 17.1 9.9 55 5.0 NW 11 17 6 9 1022.6 1021.9 0.0
29/01:30pm 19.3 17.5 10.8 58 4.7 NW 11 19 6 10 1022.9 1022.2 0.0
29/01:00pm 18.9 17.1 11.0 60 4.4 NW 11 20 6 11 1023.1 1022.4 0.0
29/12:30pm 19.0 17.5 10.6 58 4.6 NW 9 17 5 9 1023.2 1022.5 0.0
29/12:00pm 18.2 16.7 10.6 61 4.1 WNW 9 19 5 10 1023.3 1022.6 0.0
29/11:30am 18.0 16.5 10.6 62 4.0 NW 9 15 5 8 1023.3 1022.6 0.0
29/11:00am 18.1 17.2 10.7 62 4.0 N 6 9 3 5 1023.5 1022.7 0.0
29/10:30am 17.0 16.0 10.4 65 3.6 NNW 6 11 3 6 1023.5 1022.7 0.0
29/10:00am 16.6 16.1 12.0 74 2.6 NNW 6 9 3 5 1023.5 1022.7 0.0
29/09:30am 16.1 16.4 12.3 78 2.1 NNW 2 6 1 3 1023.3 1022.6 0.0
29/09:00am 14.9 15.5 12.0 83 1.6 CALM 0 0 0 0 1023.1 1022.4 0.0
29/08:30am 13.8 13.8 11.1 84 1.4 NNW 2 4 1 2 1022.9 1022.2 0.0
29/08:00am 13.0 13.2 10.7 86 1.2 CALM 0 0 0 0 1022.6 1021.9 0.0
29/07:30am 12.8 12.9 10.2 84 1.4 CALM 0 0 0 0 1022.2 1021.4 0.0
29/07:00am 13.5 12.9 10.3 81 1.7 NNW 4 6 2 3 1022.1 1021.3 0.0
29/06:30am 14.2 13.3 10.6 79 1.9 NNW 6 7 3 4 1021.7 1020.9 0.0
29/06:00am 13.7 13.2 10.7 82 1.6 NNW 4 6 2 3 1021.3 1020.5 0.0
29/05:30am 13.9 12.8 10.1 78 2.0 NNW 6 7 3 4 1021.1 1020.3 0.0
29/05:00am 14.1 13.0 9.9 76 2.2 NNW 6 7 3 4 1021.0 1020.2 0.0
29/04:30am 14.0 13.6 9.6 75 2.3 NNW 2 4 1 2 1020.9 1020.1 0.0
29/04:00am 14.4 13.6 9.8 74 2.4 NNW 4 6 2 3 1020.7 1019.9 0.0
29/03:30am 14.6 13.8 9.8 73 2.5 NNW 4 7 2 4 1020.9 1020.1 0.0
29/03:00am 14.5 13.7 9.7 73 2.5 NNW 4 6 2 3 1021.0 1020.2 0.0
29/02:30am 14.5 13.7 9.7 73 2.5 NNW 4 6 2 3 1021.3 1020.5 0.0
29/02:00am 14.7 13.4 9.3 70 2.8 NNW 6 7 3 4 1021.7 1020.9 0.0
29/01:30am 14.6 13.3 9.2 70 2.8 NNW 6 9 3 5 1021.8 1021.0 0.0
29/01:00am 14.3 12.9 8.7 69 2.9 NNW 6 6 3 3 1021.9 1021.1 0.0
29/12:30am 14.8 13.1 8.3 65 3.3 NNW 7 9 4 5 1021.9 1021.1 0.0
29/12:00am 14.0 13.5 8.0 67 3.0 CALM 0 2 0 1 1021.9 1021.1 0.0
 
Date/Time
CDT
Tmp

°C
App
Tmp
°C
Dew
Point
°C
Rel
Hum
%
Delta-T

°C
Wind Press
QNH
hPa
Press
MSL
hPa
Rain
since
9 am
mm
Dir
 
Spd
km/h
Gust
km/h
Spd
kts
Gust
kts
28/11:30pm 14.0 13.2 8.2 68 2.9 WNW 2 4 1 2 1021.9 1021.1 0.0
28/11:00pm 13.4 12.3 8.3 71 2.6 WNW 4 6 2 3 1022.0 1021.2 0.0
28/10:30pm 13.5 12.9 8.8 73 2.4 WNW 2 4 1 2 1022.3 1021.5 0.0
28/10:00pm 13.1 12.6 9.2 77 2.0 WNW 2 2 1 1 1022.4 1021.6 0.0
28/09:30pm 13.8 13.0 9.5 75 2.2 WNW 4 6 2 3 1022.4 1021.6 0.0
28/09:00pm 14.4 13.8 8.8 69 2.9 WNW 2 6 1 3 1022.1 1021.3 0.0
28/08:30pm 14.8 14.5 8.7 67 3.1 CALM 0 4 0 2 1021.8 1021.0 0.0
28/08:00pm 15.1 14.8 8.6 65 3.4 CALM 0 0 0 0 1021.8 1021.0 0.0
28/07:30pm 15.7 14.6 8.4 62 3.8 WNW 4 6 2 3 1021.8 1021.0 0.0
28/07:00pm 16.6 15.5 8.3 58 4.3 WNW 4 7 2 4 1021.6 1020.8 0.0
28/06:30pm 17.4 15.9 8.5 56 4.6 NW 6 9 3 5 1021.4 1020.6 0.0
28/06:00pm 18.1 16.7 8.7 54 4.9 NNW 6 11 3 6 1021.2 1020.4 0.0
28/05:30pm 18.0 16.3 8.3 53 5.0 NW 7 13 4 7 1021.2 1020.4 0.0
28/05:00pm 18.0 15.6 8.6 54 4.9 WNW 11 17 6 9 1021.3 1020.5 0.0
28/04:30pm 18.4 16.1 8.9 54 5.0 WNW 11 17 6 9 1021.7 1020.9 0.0
28/04:00pm 18.2 16.2 8.7 54 5.0 NNW 9 19 5 10 1021.8 1021.0 0.0
28/03:30pm 17.4 14.9 8.3 55 4.7 NW 11 20 6 11 1022.4 1021.6 0.0
28/03:00pm 17.2 14.7 8.4 56 4.6 NNW 11 20 6 11 1022.7 1022.0 0.0
28/02:30pm 17.4 15.1 9.1 58 4.4 NNW 11 24 6 13 1023.1 1022.4 0.0
28/02:00pm 16.8 14.1 9.0 60 4.1 NNW 13 20 7 11 1023.5 1022.7 0.0
28/01:30pm 16.4 14.5 9.1 62 3.8 NNW 9 19 5 10 1023.7 1022.9 0.0
28/01:00pm 15.8 13.2 9.2 65 3.5 NW 13 26 7 14 1024.0 1023.2 0.0
28/12:30pm 15.4 12.8 9.3 67 3.2 NW 13 20 7 11 1024.3 1023.5 0.0
28/12:00pm 15.2 13.3 9.1 67 3.2 NW 9 17 5 9 1024.5 1023.7 0.0
28/11:30am 15.1 13.5 8.8 66 3.2 NNW 7 13 4 7 1024.9 1024.1 0.0
28/11:00am 14.6 12.9 8.5 67 3.1 NNW 7 13 4 7 1025.1 1024.4 0.0
28/10:30am 14.7 12.7 8.6 67 3.1 NE 9 17 5 9 1025.3 1024.6 0.0
28/10:00am 14.3 12.1 9.5 73 2.5 ENE 11 15 6 8 1025.4 1024.7 0.0
28/09:30am 13.0 10.7 9.1 77 2.0 NE 11 19 6 10 1025.6 1024.9 0.0
28/09:00am 12.1 10.6 9.3 83 1.4 NE 7 13 4 7 1025.7 1025.0 0.6
28/08:30am 11.1 8.7 8.8 86 1.2 NE 11 19 6 10 1025.3 1024.6 0.6
28/08:00am 10.9 8.2 9.0 88 1.0 NE 13 17 7 9 1025.0 1024.2 0.6
28/07:30am 10.7 8.4 9.0 89 0.9 NE 11 17 6 9 1024.8 1024.0 0.6
28/07:00am 11.0 9.2 9.4 90 0.8 ENE 9 13 5 7 1025.0 1024.2 0.6
28/06:30am 11.0 9.9 9.8 92 0.6 ESE 6 9 3 5 1025.2 1024.5 0.6
28/06:00am 11.2 9.9 10.0 92 0.6 ESE 7 11 4 6 1024.9 1024.1 0.6
28/05:30am 11.4 10.3 10.1 92 0.7 ESE 6 9 3 5 1025.1 1024.4 0.6
28/05:00am 11.5 10.5 10.4 93 0.6 ESE 6 7 3 4 1025.1 1024.4 0.6
28/04:30am 11.5 11.0 10.6 94 0.5 ESE 4 4 2 2 1025.6 1024.9 0.6
28/04:00am 11.6 11.0 10.5 93 0.6 ESE 4 6 2 3 1025.1 1024.4 0.6
28/03:30am 11.8 10.8 10.2 90 0.8 ESE 6 7 3 4 1025.1 1024.4 0.6
28/03:00am 12.1 10.9 9.7 85 1.2 SE 6 6 3 3 1025.4 1024.7 0.6
28/02:30am 12.1 10.9 9.7 85 1.2 SE 6 6 3 3 1025.6 1024.9 0.6
28/02:00am 12.3 11.6 9.9 85 1.2 SE 4 6 2 3 1026.2 1025.5 0.6
28/01:30am 12.1 11.0 10.0 87 1.1 SE 6 9 3 5 1026.6 1025.8 0.6
28/01:00am 12.1 10.9 10.3 89 0.9 SE 7 9 4 5 1026.4 1025.7 0.6
28/12:30am 12.0 11.1 10.7 92 0.7 SE 6 7 3 4 1026.4 1025.7 0.6
28/12:00am 12.1 11.2 10.7 91 0.7 SE 6 6 3 3 1026.7 1025.9 0.6
 
Date/Time
CDT
Tmp

°C
App
Tmp
°C
Dew
Point
°C
Rel
Hum
%
Delta-T

°C
Wind Press
QNH
hPa
Press
MSL
hPa
Rain
since
9 am
mm
Dir
 
Spd
km/h
Gust
km/h
Spd
kts
Gust
kts
27/11:30pm 12.2 11.5 10.1 87 1.1 SE 4 6 2 3 1026.9 1026.1 0.6
27/11:00pm 12.3 11.0 9.9 85 1.2 SE 7 11 4 6 1027.1 1026.3 0.6
27/10:30pm 12.3 11.3 10.2 87 1.1 SE 6 7 3 4 1027.1 1026.3 0.6
27/10:00pm 12.1 11.0 9.8 86 1.2 SE 6 6 3 3 1027.3 1026.5 0.6
27/09:30pm 12.1 10.7 9.7 85 1.2 SE 7 9 4 5 1027.4 1026.6 0.6
27/09:00pm 12.4 10.8 10.3 87 1.1 SSE 9 15 5 8 1027.2 1026.4 0.6
27/08:30pm 12.1 10.5 10.3 89 0.9 S 9 13 5 7 1027.0 1026.2 0.6
27/08:00pm 12.3 9.7 9.5 83 1.4 SSE 13 17 7 9 1026.9 1026.1 0.6
27/07:30pm 12.5 10.2 9.1 80 1.7 SSE 11 17 6 9 1026.9 1026.1 0.6
27/07:00pm 12.6 10.0 9.2 80 1.7 SSE 13 19 7 10 1027.0 1026.2 0.6
27/06:30pm 13.0 9.6 9.1 77 2.0 SSE 17 20 9 11 1026.7 1025.9 0.6
27/06:00pm 12.9 9.6 9.5 80 1.8 SSE 17 20 9 11 1026.7 1025.9 0.6
27/05:30pm 13.3 10.6 10.5 83 1.5 SSE 15 22 8 12 1026.7 1025.9 0.6
27/05:00pm 13.3 10.4 9.5 78 2.0 SSE 15 22 8 12 1026.7 1025.9 0.6
27/04:30pm 14.4 11.5 9.6 73 2.5 SSE 15 19 8 10 1026.8 1026.0 0.6
27/04:00pm 13.9 10.4 8.7 71 2.7 SE 17 20 9 11 1026.8 1026.0 0.6
27/03:30pm 14.6 11.3 9.6 72 2.6 SSE 17 20 9 11 1026.9 1026.1 0.6
27/03:00pm 13.9 10.3 9.7 76 2.2 SE 19 24 10 13 1027.0 1026.2 0.6
27/02:30pm 13.7 10.3 10.5 81 1.7 SSE 19 24 10 13 1027.3 1026.5 0.6
27/02:00pm 15.0 12.1 9.6 70 2.8 S 15 22 8 12 1027.6 1026.9 0.6
27/01:30pm 14.0 10.6 9.2 73 2.5 SSE 17 20 9 11 1028.0 1027.3 0.6
27/01:00pm 14.4 12.2 9.4 72 2.6 S 11 19 6 10 1028.4 1027.7 0.6
27/12:30pm 14.6 12.0 9.4 71 2.7 S 13 20 7 11 1028.7 1028.0 0.6
27/12:00pm 13.2 10.3 9.6 79 1.9 S 15 24 8 13 1029.0 1028.3 0.6
27/11:30am 12.0 11.1 10.7 92 0.7 SSW 6 7 3 4 1029.3 1028.6 0.6
27/11:00am 11.4 10.6 10.9 97 0.3 S 6 9 3 5 1029.5 1028.8 0.6
27/10:30am 11.1 9.2 10.6 97 0.3 S 11 13 6 7 1029.5 1028.8 0.2
27/10:00am 11.3 9.7 10.2 93 0.6 SW 9 20 5 11 1029.3 1028.6 0.0
27/09:30am 12.0 10.1 9.2 83 1.4 SSW 9 13 5 7 1029.0 1028.3 0.0
27/09:00am 11.5 8.4 8.7 83 1.4 SSW 15 24 8 13 1029.0 1028.3 0.2
27/08:30am 11.4 8.9 8.1 80 1.6 SSW 11 17 6 9 1028.7 1028.0 0.2
27/08:00am 11.4 7.6 7.7 78 1.8 S 17 24 9 13 1028.4 1027.7 0.2
27/07:30am 11.5 8.5 7.6 77 1.9 SSW 13 19 7 10 1028.1 1027.4 0.2
27/07:00am 11.5 8.0 7.4 76 2.0 SSW 15 22 8 12 1027.8 1027.1 0.2
27/06:30am 11.6 8.7 6.5 71 2.4 SSW 11 19 6 10 1027.5 1026.7 0.2
27/06:00am 11.4 9.5 7.5 77 1.9 SW 7 15 4 8 1027.3 1026.5 0.2
27/05:30am 11.2 9.0 7.7 79 1.7 SW 9 15 5 8 1027.2 1026.4 0.2
27/05:00am 11.4 9.4 7.1 75 2.1 SSW 7 13 4 7 1027.1 1026.3 0.2
27/04:30am 11.2 9.4 7.3 77 1.9 SW 6 9 3 5 1027.1 1026.3 0.2
27/04:00am 10.9 9.0 7.6 80 1.6 SW 7 13 4 7 1027.2 1026.4 0.2
27/03:30am 10.9 8.3 7.6 80 1.6 SW 11 19 6 10 1027.3 1026.5 0.2
27/03:00am 11.0 9.1 7.7 80 1.6 SSW 7 13 4 7 1027.2 1026.4 0.2
27/02:30am 10.7 8.9 7.9 83 1.4 SW 7 11 4 6 1027.5 1026.7 0.2
27/02:00am 10.5 8.8 8.3 86 1.1 WSW 7 13 4 7 1027.5 1026.7 0.2
27/01:30am 10.5 8.9 8.6 88 0.9 WSW 7 9 4 5 1027.6 1026.9 0.2
27/01:00am 10.4 8.4 8.8 90 0.8 WSW 9 15 5 8 1027.8 1027.1 0.2
27/12:30am 10.3 8.4 8.9 91 0.7 WSW 9 15 5 8 1027.7 1027.0 0.2
27/12:00am 10.7 9.1 8.1 84 1.3 SW 6 11 3 6 1027.7 1027.0 0.2
 
Date/Time
CDT
Tmp

°C
App
Tmp
°C
Dew
Point
°C
Rel
Hum
%
Delta-T

°C
Wind Press
QNH
hPa
Press
MSL
hPa
Rain
since
9 am
mm
Dir
 
Spd
km/h
Gust
km/h
Spd
kts
Gust
kts
26/11:30pm 10.7 8.3 8.6 87 1.0 SSW 11 20 6 11 1027.9 1027.2 0.2
26/11:00pm 10.7 8.2 8.3 85 1.2 SW 11 17 6 9 1028.0 1027.3 0.2
26/10:30pm 10.3 8.8 8.6 89 0.8 SW 6 11 3 6 1028.0 1027.3 0.2
26/10:00pm 10.0 8.4 8.9 93 0.6 SSW 7 13 4 7 1028.1 1027.4 0.2
26/09:30pm 10.1 8.1 8.7 91 0.7 WSW 9 15 5 8 1028.0 1027.3 0.2
26/09:00pm 10.4 8.5 7.6 83 1.4 WSW 7 13 4 7 1028.0 1027.3 0.0
26/08:30pm 10.1 7.9 7.9 86 1.1 WSW 9 20 5 11 1027.8 1027.1 0.0
26/08:00pm 9.8 7.8 8.7 93 0.5 W 9 13 5 7 1027.5 1026.7 0.0
26/07:30pm 9.8 7.0 8.7 93 0.5 WSW 13 20 7 11 1027.5 1026.7 0.0
26/07:00pm 10.0 6.0 8.3 89 0.8 SSW 19 28 10 15 1027.3 1026.5 0.0
26/06:30pm 11.0 8.5 8.1 82 1.4 SW 11 19 6 10 1027.1 1026.3 0.0
26/06:00pm 11.5 7.0 6.0 69 2.6 WSW 19 28 10 15 1026.7 1025.9 0.0
26/05:30pm 12.1 7.9 5.5 64 3.1 SW 17 32 9 17 1026.3 1025.6 0.0
26/05:00pm 12.0 7.3 5.9 66 2.9 SW 20 30 11 16 1026.2 1025.5 0.0

Latest Capital City Observations: Canberra | Sydney | Melbourne | Brisbane | Adelaide | Perth | Hobart | Darwin

Other Formats:

Comma delimited format used in spreadsheet applications
http://www.bom.gov.au/fwo/IDS60901/IDS60901.94811.axf

JavaScript Object Notation format (JSON) in row-major order
http://www.bom.gov.au/fwo/IDS60901/IDS60901.94811.json